Sheridan, WY

6:11 PM MDT on August 29, 2014 (GMT -0600)
North Airport Area | Change Station
CLOSE
Current Station
Personal Weather Station
Location: Sheridan, WY
Elevation: 3917 ft
Nearby Weather Stations

Elev 3917 ft 44.78 °N, 106.97 °W | Updated 9 minutes ago

Clear
Clear
78.4 °F
Feels Like 79 °F
N
0.0
Wind Variable Wind from SSW

Today
High -- | Low -- °F
--% Chance of Precip.
Yesterday
High -- | Low -- °F
Precip. -- in
6:26 AM 7:49 PM
Waxing Crescent, 17% visible
Pressure 29.89 in
Visibility 10.0 miles
Clouds Clear
Heat Index 79 °F
Dew Point 54 °F
Humidity 43%
Rainfall 0.02 in
Snow Depth Not available.
UV 1 out of 12
Pollen 8.30 out of 12
Air Quality Not available.
Flu Activity Not available.
METAR KSHR 292353Z AUTO 10004KT 10SM CLR 25/10 A2999 RMK AO2 SLP121 T02500100 10250 20200 56016

More Conditions Fewer Conditions

Pressure 29.89 in
Visibility 10.0 miles
Clouds Clear
Heat Index 79 °F
Dew Point 54 °F
Humidity 43%
Rainfall 0.02 in
Snow Depth Not available.
UV 1 out of 12
Pollen 8.30 out of 12
Air Quality Not available.
Flu Activity Not available.
METAR KSHR 292353Z AUTO 10004KT 10SM CLR 25/10 A2999 RMK AO2 SLP121 T02500100 10250 20200 56016

More Conditions Fewer Conditions

10-Day Weather Forecast

Almanac

Astronomy

Aug. 29, 2014 Rise Set
Actual Time 6:26 AM MDT 7:49 PM MDT
Civil Twilight 5:56 AM MDT 8:20 PM MDT
Nautical Twilight 5:19 AM MDT 8:56 PM MDT
Astronomical Twilight 4:40 AM MDT 9:35 PM MDT
Moon 10:30 AM MDT (8/29) 9:36 PM MDT (8/29)
Length of Visible Light 14h 24m
Length of Day
13h 23m
Tomorrow will be 2m 58s shorter.
Waxing Crescent, 17% of the Moon is Illuminated
Today
Waxing Crescent
Sep 2
First Quarter
Sep 8
Full
Sep 15
Last Quarter
Sep 24
New

Today's Extremes

State Highs State Lows

Community

WunderPhotos

Upload Photos

1,748,382 photos uploaded!

Nearby

Snow Depth

Station Depth Elevation
Hansen Sawmill 0 in 8360 ft
Middle Powder 0 in 7760 ft
Cole Canyon 0 in 5910 ft
Marquette 0 in 8760 ft
Parker Peak 0 in 9400 ft

Earthquake Activity

City Distance Mag. Time & Date
No recent earthquake activity has been reported nearby.
Minimum magnitude displayed is 2.5.

Coastal Water Temperatures

Place Temperature
No Stations Reporting

Nearby Weather Stations